Athens, ME

9:37 PM EST on February 09, 2016 (GMT -0500)
North central Maine | | Change Station
CLOSE
Current Station
Personal Weather Station
Location: Cambridge, ME
Elevation: 705 ft
Nearby Weather Stations

Elev 705 ft 45.04 °N, 69.49 °W | Updated 17 minutes ago

Partly Cloudy
Partly Cloudy
13.9 °F
Feels Like 14 °F
N
1.0
Wind Variable Wind from NW
Gusts 2.0 mph

Today
High -- | Low -- °F
--% Chance of Precip.
Yesterday
High -- | Low -- °F
Precip. -- in
Pressure 29.69 in
Visibility 10.0 miles
Clouds Clear
Windchill 14 °F
Dew Point 11 °F
Humidity 88%
Rainfall 0.00 in
Snow Depth Not available.
6:48 AM 4:57 PM
Waxing Crescent, 3% visible
METAR KWVL 100156Z AUTO 32005KT 10SM CLR M12/M13 A2957 RMK AO2 SLP053 T11171133 FZRANO
Pressure 29.69 in
Visibility 10.0 miles
Clouds Clear
Windchill 14 °F
Dew Point 11 °F
Humidity 88%
Rainfall 0.00 in
Snow Depth Not available.
6:48 AM 4:57 PM
Waxing Crescent, 3% visible
METAR KWVL 100156Z AUTO 32005KT 10SM CLR M12/M13 A2957 RMK AO2 SLP053 T11171133 FZRANO

10-Day Weather Forecast

Almanac

Astronomy

Feb. 09, 2016 Rise Set
Actual Time
Civil Twilight
Nautical Twilight
Astronomical Twilight
Moon
Length of Visible Light
Length of Day
Tomorrow will be .
, % of the Moon is Illuminated

Today's Extremes

State Highs State Lows

Community

WunderPhotos

Upload Photos

1,891,763 photos uploaded!

WunderBlog® & News

Nearby

Air Quality

  Air Quality AQ Index Pollutant
Not available.

Snow Depth

Station Depth Elevation

Earthquake Activity

City Distance Mag. Time & Date
Minimum magnitude displayed is 2.5.

Coastal Water Temperatures

Place Temperature

Stations

Nearby Weather Stations

Station Location Temp. Windchill Dew Point Humidity Wind Precip. Elev Updated Type
                   

Watches & Warnings

There are currently no watches in effect.